createdAt,value
2023-02-08T00:01:14.414Z,14.45
2023-02-08T00:03:42.280Z,14.85
2023-02-08T00:06:10.815Z,14.40
2023-02-08T00:08:39.077Z,14.27
2023-02-08T00:11:07.551Z,14.55
2023-02-08T00:13:36.663Z,14.70
2023-02-08T00:16:05.088Z,13.98
2023-02-08T00:18:33.045Z,13.95
2023-02-08T00:21:00.848Z,14.75
2023-02-08T00:23:28.892Z,14.57
2023-02-08T00:25:56.635Z,14.35
2023-02-08T00:28:24.432Z,14.18
2023-02-08T00:30:53.610Z,14.25
2023-02-08T00:33:21.358Z,13.57
2023-02-08T00:35:49.123Z,13.48
2023-02-08T00:38:16.940Z,13.63
2023-02-08T00:40:44.683Z,14.75
2023-02-08T00:43:12.430Z,14.45
2023-02-08T00:45:40.179Z,14.63
2023-02-08T00:48:09.370Z,14.45
2023-02-08T00:50:37.136Z,15.57
2023-02-08T00:53:05.285Z,15.32
2023-02-08T00:55:33.015Z,15.07
2023-02-08T00:58:00.799Z,14.35
2023-02-08T01:00:28.612Z,14.85
2023-02-08T01:02:56.392Z,14.18
2023-02-08T01:05:25.552Z,14.55
2023-02-08T01:07:53.310Z,16.08
2023-02-08T01:10:21.114Z,15.43
2023-02-08T01:12:48.867Z,17.10
2023-02-08T01:15:16.663Z,14.15
2023-02-08T01:17:44.586Z,15.15
2023-02-08T01:20:12.843Z,14.07
2023-02-08T01:22:42.009Z,13.13
2023-02-08T01:25:10.390Z,14.20
2023-02-08T01:27:38.134Z,13.20
2023-02-08T01:30:07.004Z,13.50
2023-02-08T01:32:34.778Z,13.07
2023-02-08T01:35:02.510Z,12.88
2023-02-08T01:37:30.360Z,12.90
2023-02-08T01:39:59.549Z,14.40
2023-02-08T01:42:27.497Z,12.48
2023-02-08T01:45:30.046Z,12.90
2023-02-08T01:48:11.833Z,13.85
2023-02-08T01:50:47.931Z,13.27
2023-02-08T01:53:15.899Z,12.85
2023-02-08T01:55:49.229Z,13.13
2023-02-08T01:58:19.177Z,13.18
2023-02-08T02:00:48.011Z,12.23
2023-02-08T02:03:16.570Z,12.43
2023-02-08T02:05:46.739Z,11.60
2023-02-08T02:08:14.931Z,12.80
2023-02-08T02:10:43.559Z,13.50
2023-02-08T02:13:16.254Z,13.68
2023-02-08T02:15:46.322Z,13.38
2023-02-08T02:18:20.335Z,13.32
2023-02-08T02:21:02.254Z,13.05
2023-02-08T02:23:56.436Z,12.70
2023-02-08T02:27:09.110Z,12.40
2023-02-08T02:30:25.940Z,12.48
2023-02-08T02:33:09.331Z,13.27
2023-02-08T02:35:47.569Z,11.20
2023-02-08T02:38:28.935Z,12.02
2023-02-08T02:41:07.251Z,12.48
2023-02-08T02:43:46.152Z,12.52
2023-02-08T02:46:25.322Z,12.82
2023-02-08T02:49:03.202Z,13.05
2023-02-08T02:51:39.682Z,12.52
2023-02-08T02:54:12.623Z,11.88
2023-02-08T02:56:43.917Z,12.65
2023-02-08T02:59:13.285Z,12.35
2023-02-08T03:01:43.009Z,11.75
2023-02-08T03:04:16.443Z,11.52
2023-02-08T03:07:00.048Z,12.60
2023-02-08T03:09:53.234Z,12.68
2023-02-08T03:12:37.056Z,12.25
2023-02-08T03:15:15.184Z,12.80
2023-02-08T03:17:57.078Z,12.48
2023-02-08T03:20:29.087Z,12.70
2023-02-08T03:23:04.888Z,12.55
2023-02-08T03:25:38.487Z,11.43
2023-02-08T03:28:12.817Z,12.45
2023-02-08T03:30:51.257Z,13.57
2023-02-08T03:33:26.113Z,11.32
2023-02-08T03:36:00.857Z,12.35
2023-02-08T03:38:32.910Z,12.82
2023-02-08T03:41:05.523Z,12.13
2023-02-08T03:43:37.691Z,12.45
2023-02-08T03:46:11.388Z,12.73
2023-02-08T03:51:11.014Z,12.63
2023-02-08T03:53:40.603Z,12.93
2023-02-08T03:56:15.864Z,18.40
2023-02-08T03:58:49.112Z,12.23
2023-02-08T04:01:24.103Z,11.98
2023-02-08T04:03:54.646Z,13.07
2023-02-08T04:06:24.563Z,11.65
2023-02-08T04:08:52.751Z,12.82
2023-02-08T04:11:20.571Z,11.60
2023-02-08T04:13:48.305Z,12.05
2023-02-08T04:16:16.035Z,11.70
2023-02-08T04:18:43.800Z,12.55
2023-02-08T04:21:11.532Z,12.43
2023-02-08T04:23:40.614Z,22.33
2023-02-08T04:26:08.830Z,15.90
2023-02-08T04:28:36.746Z,13.07
2023-02-08T04:31:04.842Z,12.45
2023-02-08T04:33:32.680Z,11.80
2023-02-08T04:36:00.452Z,12.18
2023-02-08T04:38:28.271Z,12.15
2023-02-08T04:40:57.407Z,12.38
2023-02-08T04:43:25.168Z,13.30
2023-02-08T04:45:53.428Z,11.95
2023-02-08T04:48:21.209Z,12.70
2023-02-08T04:50:49.253Z,12.32
2023-02-08T04:53:17.037Z,12.23
2023-02-08T04:55:44.766Z,11.88
2023-02-08T04:58:13.857Z,13.13
2023-02-08T05:00:41.943Z,11.93
2023-02-08T05:03:10.255Z,12.52
2023-02-08T05:05:38.131Z,12.57
2023-02-08T05:08:06.525Z,12.88
2023-02-08T05:10:34.376Z,11.80
2023-02-08T05:13:02.192Z,11.32
2023-02-08T05:15:31.259Z,12.82
2023-02-08T05:17:59.056Z,12.75
2023-02-08T05:20:26.813Z,13.68
2023-02-08T05:22:54.537Z,13.38
2023-02-08T05:25:22.270Z,12.05
2023-02-08T05:27:50.069Z,12.55
2023-02-08T05:30:18.048Z,13.52
2023-02-08T05:32:47.169Z,12.80
2023-02-08T05:35:14.930Z,12.15
2023-02-08T05:37:42.691Z,13.73
2023-02-08T05:40:13.193Z,12.98
2023-02-08T05:42:42.371Z,12.75
2023-02-08T05:45:10.614Z,12.70
2023-02-08T05:47:38.325Z,11.32
2023-02-08T05:50:07.765Z,11.38
2023-02-08T05:52:35.460Z,13.10
2023-02-08T05:55:03.247Z,12.15
2023-02-08T05:57:32.304Z,13.93
2023-02-08T06:00:00.859Z,12.15
2023-02-08T06:02:28.612Z,12.27
2023-02-08T06:04:56.330Z,10.63
2023-02-08T06:07:25.471Z,12.48
2023-02-08T06:09:53.247Z,11.07
2023-02-08T06:12:21.087Z,11.35
2023-02-08T06:14:48.879Z,11.95
2023-02-08T06:17:16.800Z,12.02
2023-02-08T06:19:44.609Z,12.18
2023-02-08T06:22:12.391Z,12.00
2023-02-08T06:24:41.563Z,12.15
2023-02-08T06:27:09.574Z,11.70
2023-02-08T06:29:37.281Z,12.40
2023-02-08T06:32:05.338Z,12.07
2023-02-08T06:34:33.192Z,12.02
2023-02-08T06:37:02.273Z,12.05
2023-02-08T06:39:30.634Z,12.23
2023-02-08T06:41:59.827Z,12.57
2023-02-08T06:44:27.962Z,13.45
2023-02-08T06:46:55.742Z,11.68
2023-02-08T06:49:23.625Z,15.32
2023-02-08T06:51:51.372Z,12.43
2023-02-08T06:54:19.304Z,11.82
2023-02-08T06:56:47.119Z,11.52
2023-02-08T06:59:16.329Z,11.65
2023-02-08T07:01:44.128Z,10.88
2023-02-08T07:04:11.918Z,12.07
2023-02-08T07:06:39.820Z,11.32
2023-02-08T07:09:07.551Z,11.82
2023-02-08T07:11:35.314Z,12.35
2023-02-08T07:14:03.132Z,11.95
2023-02-08T07:16:32.354Z,12.30
2023-02-08T07:19:00.116Z,11.90
2023-02-08T07:21:27.895Z,11.48
2023-02-08T07:23:55.795Z,12.50
2023-02-08T07:26:23.548Z,13.50
2023-02-08T07:28:51.325Z,14.23
2023-02-08T07:31:19.382Z,12.80
2023-02-08T07:33:48.469Z,12.43
2023-02-08T07:36:16.510Z,12.10
2023-02-08T07:38:44.241Z,11.40
2023-02-08T07:41:14.111Z,11.77
2023-02-08T07:43:43.029Z,11.98
2023-02-08T07:46:13.200Z,12.40
2023-02-08T07:48:41.080Z,12.27
2023-02-08T07:51:11.385Z,10.95
2023-02-08T07:53:39.616Z,11.80
2023-02-08T07:56:07.887Z,12.73
2023-02-08T07:58:35.662Z,12.88
2023-02-08T08:01:16.120Z,11.23
2023-02-08T08:03:47.816Z,12.82
2023-02-08T08:06:16.985Z,12.32
2023-02-08T08:08:47.375Z,12.30
2023-02-08T08:11:15.387Z,12.25
2023-02-08T08:13:43.316Z,12.48
2023-02-08T08:16:11.717Z,12.13
2023-02-08T08:18:39.760Z,11.73
2023-02-08T08:21:08.156Z,12.25
2023-02-08T08:23:37.688Z,13.48
2023-02-08T08:26:10.342Z,12.40
2023-02-08T08:28:38.804Z,11.70
2023-02-08T08:31:11.295Z,11.68
2023-02-08T08:33:39.199Z,11.40
2023-02-08T08:36:07.651Z,11.75
2023-02-08T08:38:35.548Z,11.85
2023-02-08T08:41:08.442Z,11.32
2023-02-08T08:43:36.204Z,11.27
2023-02-08T08:46:05.900Z,11.63
2023-02-08T08:48:34.166Z,11.88
2023-02-08T08:51:01.908Z,12.00
2023-02-08T08:53:29.875Z,12.43
2023-02-08T08:55:57.697Z,12.43
2023-02-08T08:58:26.840Z,11.30
2023-02-08T09:00:55.284Z,11.60
2023-02-08T09:03:23.097Z,11.68
2023-02-08T09:05:50.838Z,13.02
2023-02-08T09:08:18.584Z,11.88
2023-02-08T09:10:46.344Z,11.57
2023-02-08T09:13:19.315Z,11.30
2023-02-08T09:15:49.181Z,11.68
2023-02-08T09:18:17.186Z,11.40
2023-02-08T09:20:45.365Z,11.30
2023-02-08T09:23:14.600Z,11.30
2023-02-08T09:25:42.405Z,11.10
2023-02-08T09:28:10.290Z,11.35
2023-02-08T09:30:38.119Z,11.35
2023-02-08T09:33:07.297Z,10.52
2023-02-08T09:35:34.977Z,10.68
2023-02-08T09:38:04.600Z,15.35
2023-02-08T09:40:39.401Z,11.88
2023-02-08T09:43:13.957Z,11.88
2023-02-08T09:45:59.334Z,10.25
2023-02-08T09:48:32.716Z,12.65
2023-02-08T09:51:05.777Z,12.20
2023-02-08T09:53:37.863Z,10.65
2023-02-08T09:56:07.912Z,10.35
2023-02-08T09:58:40.660Z,9.82
2023-02-08T10:01:18.656Z,10.10
2023-02-08T10:03:49.735Z,10.13
2023-02-08T10:06:19.875Z,10.43
2023-02-08T10:08:51.438Z,10.15
2023-02-08T10:11:44.342Z,11.15
2023-02-08T10:14:49.448Z,9.95
2023-02-08T10:17:37.361Z,9.30
2023-02-08T10:20:15.618Z,9.95
2023-02-08T10:22:50.691Z,10.57
2023-02-08T10:25:32.436Z,9.77
2023-02-08T10:28:17.693Z,10.35
2023-02-08T10:30:52.714Z,9.75
2023-02-08T10:33:26.445Z,10.52
2023-02-08T10:35:56.246Z,9.50
2023-02-08T10:38:37.192Z,9.80
2023-02-08T10:41:10.271Z,10.38
2023-02-08T10:43:44.465Z,10.27
2023-02-08T10:46:21.891Z,9.13
2023-02-08T10:49:01.427Z,10.20
2023-02-08T10:51:31.732Z,9.20
2023-02-08T10:53:59.726Z,9.90
2023-02-08T10:56:51.725Z,10.43
2023-02-08T10:59:23.044Z,10.88
2023-02-08T11:01:51.874Z,9.07
2023-02-08T11:04:19.956Z,8.43
2023-02-08T11:06:51.783Z,9.07
2023-02-08T11:09:29.122Z,9.40
2023-02-08T11:11:58.798Z,8.98
2023-02-08T11:14:44.636Z,8.88
2023-02-08T11:17:27.009Z,9.32
2023-02-08T11:19:55.370Z,8.57
2023-02-08T11:22:27.434Z,8.40
2023-02-08T11:24:58.982Z,8.65
2023-02-08T11:27:35.474Z,8.85
2023-02-08T11:30:21.366Z,8.70
2023-02-08T11:32:51.050Z,8.35
2023-02-08T11:35:23.030Z,8.38
2023-02-08T11:37:54.761Z,8.68
2023-02-08T11:40:25.674Z,8.57
2023-02-08T11:42:54.177Z,7.85
2023-02-08T11:45:24.751Z,8.35
2023-02-08T11:47:53.713Z,8.93
2023-02-08T11:50:26.300Z,8.00
2023-02-08T11:53:00.069Z,8.63
2023-02-08T11:58:01.075Z,8.35
2023-02-08T12:00:31.252Z,7.78
2023-02-08T12:03:01.694Z,8.05
2023-02-08T12:05:41.578Z,8.95
2023-02-08T12:08:23.187Z,8.43
2023-02-08T12:11:13.574Z,7.82
2023-02-08T12:14:09.559Z,8.90
2023-02-08T12:17:01.720Z,8.35
2023-02-08T12:19:55.896Z,8.15
2023-02-08T12:22:26.553Z,8.00
2023-02-08T12:25:11.337Z,8.05
2023-02-08T12:27:44.374Z,7.75
2023-02-08T12:30:22.482Z,8.50
2023-02-08T12:33:12.305Z,7.40
2023-02-08T12:36:03.724Z,8.68
2023-02-08T12:39:19.074Z,8.13
2023-02-08T12:44:33.897Z,8.07
2023-02-08T12:47:12.587Z,7.85
2023-02-08T12:49:55.250Z,8.00
2023-02-08T12:52:34.234Z,7.22
2023-02-08T12:55:06.635Z,8.40
2023-02-08T12:57:36.341Z,7.10
2023-02-08T13:00:07.321Z,7.47
2023-02-08T13:02:44.505Z,7.88
2023-02-08T13:05:18.752Z,7.88
2023-02-08T13:07:50.617Z,8.07
2023-02-08T13:10:26.873Z,8.02
2023-02-08T13:12:59.744Z,7.57
2023-02-08T13:15:36.288Z,7.28
2023-02-08T13:18:13.240Z,8.27
2023-02-08T13:20:45.813Z,7.40
2023-02-08T13:23:21.601Z,8.05
2023-02-08T13:25:51.852Z,7.85
2023-02-08T13:28:23.686Z,7.75
2023-02-08T13:30:58.243Z,7.70
2023-02-08T13:33:33.887Z,7.20
2023-02-08T13:36:02.165Z,7.65
2023-02-08T13:38:32.692Z,8.27
2023-02-08T13:41:08.143Z,7.18
2023-02-08T13:43:45.090Z,7.20
2023-02-08T13:46:13.679Z,6.85
2023-02-08T13:48:45.083Z,7.28
2023-02-08T13:51:53.207Z,7.53
2023-02-08T13:54:21.335Z,8.25
2023-02-08T13:56:51.238Z,6.63
2023-02-08T13:59:36.167Z,8.45
2023-02-08T14:02:29.299Z,7.28
2023-02-08T14:05:30.410Z,7.72
2023-02-08T14:08:00.431Z,7.00
2023-02-08T14:10:37.488Z,7.70
2023-02-08T14:13:09.526Z,8.20
2023-02-08T14:15:40.776Z,6.97
2023-02-08T14:18:27.690Z,7.03
2023-02-08T14:21:07.236Z,7.03
2023-02-08T14:23:40.585Z,7.53
2023-02-08T14:26:11.629Z,7.90
2023-02-08T14:28:44.934Z,7.22
2023-02-08T14:31:16.677Z,7.45
2023-02-08T14:33:53.365Z,7.97
2023-02-08T14:36:29.847Z,7.97
2023-02-08T14:39:09.730Z,7.28
2023-02-08T14:41:57.233Z,8.23
2023-02-08T14:44:59.087Z,7.25
2023-02-08T14:47:54.444Z,7.78
2023-02-08T14:50:26.539Z,7.82
2023-02-08T14:53:00.385Z,7.93
2023-02-08T14:58:00.554Z,7.47
2023-02-08T15:00:33.545Z,7.95
2023-02-08T15:03:05.141Z,7.20
2023-02-08T15:05:41.773Z,7.38
2023-02-08T15:08:09.800Z,6.90
2023-02-08T15:10:44.924Z,6.85
2023-02-08T15:13:20.934Z,7.13
2023-02-08T15:15:54.764Z,6.53
2023-02-08T15:21:03.086Z,6.97
2023-02-08T15:23:31.630Z,7.10
2023-02-08T15:26:01.413Z,7.72
2023-02-08T15:28:31.041Z,7.82
2023-02-08T15:31:01.575Z,8.25
2023-02-08T15:33:30.868Z,8.20
2023-02-08T15:36:02.433Z,8.20
2023-02-08T15:38:31.442Z,8.13
2023-02-08T15:41:05.526Z,8.55
2023-02-08T15:43:34.419Z,7.47
2023-02-08T15:46:05.233Z,11.10
2023-02-08T15:48:36.977Z,7.65
2023-02-08T15:51:08.243Z,8.07
2023-02-08T15:53:45.602Z,9.05
2023-02-08T15:56:27.014Z,7.65
2023-02-08T15:59:05.293Z,8.80
2023-02-08T16:01:33.290Z,7.97
2023-02-08T16:04:06.098Z,10.23
2023-02-08T16:06:39.969Z,12.98
2023-02-08T16:09:08.148Z,11.75
2023-02-08T16:11:37.406Z,10.43
2023-02-08T16:14:07.808Z,8.25
2023-02-08T16:16:41.839Z,8.75
2023-02-08T16:19:26.009Z,9.45
2023-02-08T16:24:27.507Z,9.27
2023-02-08T16:27:03.502Z,8.93
2023-02-08T16:29:33.965Z,8.60
2023-02-08T16:32:11.182Z,10.50
2023-02-08T16:34:42.547Z,10.52
2023-02-08T16:37:24.302Z,10.07
2023-02-08T16:39:53.657Z,9.85
2023-02-08T16:42:30.993Z,9.15
2023-02-08T16:45:30.144Z,8.80
2023-02-08T16:48:04.234Z,9.38
2023-02-08T16:50:42.751Z,9.68
2023-02-08T16:53:13.483Z,10.27
2023-02-08T16:55:41.307Z,10.35
2023-02-08T16:58:16.080Z,10.77
2023-02-08T17:00:45.401Z,9.27
2023-02-08T17:03:13.429Z,9.10
2023-02-08T17:05:46.476Z,9.95
2023-02-08T17:08:17.379Z,10.35
2023-02-08T17:10:46.105Z,9.18
2023-02-08T17:13:20.236Z,12.18
2023-02-08T17:15:50.320Z,12.27
2023-02-08T17:18:18.155Z,16.02
2023-02-08T17:20:48.015Z,14.13
2023-02-08T17:23:16.488Z,12.90
2023-02-08T17:25:44.849Z,10.95
2023-02-08T17:28:18.264Z,13.63
2023-02-08T17:30:47.149Z,18.50
2023-02-08T17:33:18.402Z,11.70
2023-02-08T17:35:49.287Z,11.93
2023-02-08T17:38:17.519Z,12.75
2023-02-08T17:40:45.911Z,12.05
2023-02-08T17:43:14.501Z,10.32
2023-02-08T17:45:44.937Z,10.65
2023-02-08T17:48:14.322Z,10.98
2023-02-08T17:50:43.960Z,11.77
2023-02-08T17:53:13.939Z,17.00
2023-02-08T17:55:43.325Z,14.85
2023-02-08T17:58:11.394Z,29.38
2023-02-08T18:00:39.735Z,17.23
2023-02-08T18:03:07.507Z,76.22
2023-02-08T18:05:35.434Z,36.22
2023-02-08T18:08:03.584Z,25.02
2023-02-08T18:10:35.582Z,18.13
2023-02-08T18:13:03.348Z,10.95
2023-02-08T18:15:31.130Z,10.35
2023-02-08T18:17:58.932Z,10.48
2023-02-08T18:20:26.643Z,13.50
2023-02-08T18:22:54.435Z,14.18
2023-02-08T18:25:22.226Z,11.82
2023-02-08T18:27:51.668Z,11.43
2023-02-08T18:30:20.343Z,10.25
2023-02-08T18:32:48.281Z,9.65
2023-02-08T18:35:16.057Z,9.00
2023-02-08T18:37:43.950Z,8.85
2023-02-08T18:40:12.872Z,8.75
2023-02-08T18:42:40.648Z,7.88
2023-02-08T18:45:10.970Z,8.30
2023-02-08T18:47:39.884Z,11.52
2023-02-08T18:50:09.142Z,12.77
2023-02-08T18:52:36.956Z,9.27
2023-02-08T18:55:05.173Z,16.77
2023-02-08T18:57:32.982Z,10.27
2023-02-08T19:00:00.806Z,10.27
2023-02-08T19:02:31.369Z,9.43
2023-02-08T19:04:59.124Z,9.05
2023-02-08T19:07:26.914Z,7.47
2023-02-08T19:09:54.823Z,7.55
2023-02-08T19:12:22.798Z,7.25
2023-02-08T19:14:51.948Z,7.10
2023-02-08T19:17:20.095Z,8.07
2023-02-08T19:19:49.510Z,7.25
2023-02-08T19:22:17.358Z,6.75
2023-02-08T19:24:45.190Z,8.48
2023-02-08T19:27:13.052Z,9.18
2023-02-08T19:29:41.234Z,7.07
2023-02-08T19:32:09.223Z,7.05
2023-02-08T19:34:37.099Z,6.90
2023-02-08T19:37:06.382Z,7.20
2023-02-08T19:39:34.259Z,7.13
2023-02-08T19:42:02.122Z,6.85
2023-02-08T19:44:30.723Z,6.90
2023-02-08T19:46:58.987Z,7.70
2023-02-08T19:49:28.340Z,7.68
2023-02-08T19:51:56.898Z,7.43
2023-02-08T19:54:26.055Z,7.45
2023-02-08T19:56:54.956Z,7.38
2023-02-08T19:59:24.817Z,7.47
2023-02-08T20:01:52.964Z,6.80
2023-02-08T20:04:21.571Z,7.57
2023-02-08T20:06:52.825Z,7.78
2023-02-08T20:09:20.953Z,8.98
2023-02-08T20:11:57.233Z,8.73
2023-02-08T20:14:26.068Z,8.00
2023-02-08T20:16:54.053Z,7.32
2023-02-08T20:19:21.873Z,7.30
2023-02-08T20:21:49.851Z,7.03
2023-02-08T20:24:18.079Z,8.43
2023-02-08T20:26:47.137Z,7.45
2023-02-08T20:29:16.887Z,7.65
2023-02-08T20:31:47.958Z,9.30
2023-02-08T20:34:17.289Z,9.23
2023-02-08T20:36:57.519Z,8.23
2023-02-08T20:39:33.339Z,27.83
2023-02-08T20:42:01.127Z,19.42
2023-02-08T20:44:31.540Z,13.27
2023-02-08T20:46:59.483Z,8.98
2023-02-08T20:49:27.340Z,9.05
2023-02-08T20:51:55.894Z,8.57
2023-02-08T20:54:24.990Z,10.52
2023-02-08T20:56:54.103Z,8.77
2023-02-08T20:59:22.000Z,9.27
2023-02-08T21:01:51.297Z,9.65
2023-02-08T21:04:20.381Z,8.88
2023-02-08T21:06:48.265Z,9.63
2023-02-08T21:09:18.687Z,8.68
2023-02-08T21:11:47.207Z,9.25
2023-02-08T21:14:18.995Z,8.32
2023-02-08T21:16:47.873Z,9.23
2023-02-08T21:19:17.528Z,26.13
2023-02-08T21:21:45.349Z,14.25
2023-02-08T21:24:13.179Z,12.13
2023-02-08T21:26:40.999Z,11.25
2023-02-08T21:29:08.916Z,9.27
2023-02-08T21:31:37.735Z,8.45
2023-02-08T21:34:06.269Z,8.55
2023-02-08T21:36:36.058Z,8.45
2023-02-08T21:39:04.602Z,8.48
2023-02-08T21:41:34.333Z,8.07
2023-02-08T21:44:04.398Z,7.90
2023-02-08T21:46:33.209Z,7.50
2023-02-08T21:49:18.959Z,7.22
2023-02-08T21:52:05.690Z,7.40
2023-02-08T21:54:44.751Z,8.05
2023-02-08T21:57:16.123Z,7.57
2023-02-08T21:59:44.172Z,13.80
2023-02-08T22:02:16.128Z,12.07
2023-02-08T22:05:01.302Z,11.77
2023-02-08T22:07:30.957Z,15.30
2023-02-08T22:09:59.104Z,15.07
2023-02-08T22:12:26.892Z,12.70
2023-02-08T22:14:54.662Z,10.98
2023-02-08T22:17:22.513Z,10.95
2023-02-08T22:19:50.341Z,10.65
2023-02-08T22:22:18.128Z,10.52
2023-02-08T22:24:47.274Z,9.98
2023-02-08T22:27:15.080Z,10.13
2023-02-08T22:29:42.873Z,8.38
2023-02-08T22:32:12.534Z,8.45
2023-02-08T22:34:40.410Z,7.55
2023-02-08T22:37:08.159Z,8.00
2023-02-08T22:39:36.003Z,7.45
2023-02-08T22:42:08.639Z,7.38
2023-02-08T22:44:36.821Z,8.13
2023-02-08T22:47:06.375Z,7.70
2023-02-08T22:49:34.294Z,7.93
2023-02-08T22:52:02.268Z,8.27
2023-02-08T22:54:30.127Z,8.32
2023-02-08T22:56:58.123Z,7.25
2023-02-08T22:59:27.307Z,8.65
2023-02-08T23:01:55.131Z,7.85
2023-02-08T23:04:22.985Z,8.05
2023-02-08T23:06:53.966Z,9.07
2023-02-08T23:09:21.966Z,8.27
2023-02-08T23:11:49.711Z,10.63
2023-02-08T23:14:17.686Z,9.55
2023-02-08T23:16:46.896Z,9.48
2023-02-08T23:19:15.734Z,8.43
2023-02-08T23:21:43.570Z,9.20
2023-02-08T23:24:12.051Z,8.85
2023-02-08T23:26:40.569Z,9.25
2023-02-08T23:29:08.389Z,8.73
2023-02-08T23:31:36.255Z,9.65
2023-02-08T23:34:05.441Z,8.98
2023-02-08T23:36:33.549Z,8.95
2023-02-08T23:39:03.315Z,8.60
2023-02-08T23:41:31.119Z,8.63
2023-02-08T23:43:58.926Z,8.27
2023-02-08T23:46:28.648Z,9.35
2023-02-08T23:48:56.571Z,9.18
2023-02-08T23:51:26.623Z,8.80
2023-02-08T23:53:55.269Z,8.70
2023-02-08T23:56:24.444Z,8.88
2023-02-08T23:58:55.393Z,8.40
